createdAt,value
2022-08-01T00:02:52.550Z,27.33
2022-08-01T00:09:23.968Z,27.34
2022-08-01T00:15:57.866Z,27.35
2022-08-01T00:22:27.229Z,27.36
2022-08-01T00:28:54.691Z,27.35
2022-08-01T00:35:20.525Z,27.34
2022-08-01T00:41:59.590Z,27.36
2022-08-01T00:48:26.680Z,27.37
2022-08-01T00:54:56.708Z,27.35
2022-08-01T01:01:23.288Z,27.38
2022-08-01T01:08:10.699Z,27.32
2022-08-01T01:15:11.665Z,27.37
2022-08-01T01:21:57.595Z,27.37
2022-08-01T01:28:45.667Z,27.32
2022-08-01T01:35:43.211Z,27.38
2022-08-01T01:42:32.636Z,27.38
2022-08-01T01:49:08.867Z,27.58
2022-08-01T01:55:52.814Z,27.44
2022-08-01T02:02:40.126Z,27.41
2022-08-01T02:09:17.865Z,27.4
2022-08-01T02:15:59.639Z,27.39
2022-08-01T02:22:53.691Z,27.38
2022-08-01T02:29:50.746Z,27.4
2022-08-01T02:36:39.297Z,27.41
2022-08-01T02:43:16.659Z,27.39
2022-08-01T02:50:07.723Z,27.41
2022-08-01T02:56:53.802Z,27.37
2022-08-01T03:03:31.078Z,27.41
2022-08-01T03:10:04.784Z,27.39
2022-08-01T03:16:44.696Z,27.39
2022-08-01T03:23:29.208Z,27.42
2022-08-01T03:30:22.696Z,27.4
2022-08-01T03:36:58.703Z,27.42
2022-08-01T03:43:58.864Z,27.41
2022-08-01T03:50:52.144Z,27.41
2022-08-01T03:57:35.838Z,27.42
2022-08-01T04:04:08.157Z,27.4
2022-08-01T04:10:39.042Z,27.39
2022-08-01T04:17:02.804Z,27.39
2022-08-01T04:23:26.730Z,27.41
2022-08-01T04:30:07.774Z,27.38
2022-08-01T04:37:02.821Z,27.38
2022-08-01T04:43:44.120Z,27.36
2022-08-01T04:50:17.852Z,27.36
2022-08-01T04:56:47.220Z,27.51
2022-08-01T05:03:33.920Z,27.41
2022-08-01T05:10:00.823Z,27.39
2022-08-01T05:16:48.840Z,27.38
2022-08-01T05:23:17.268Z,27.35
2022-08-01T05:29:55.785Z,27.34
2022-08-01T05:36:24.797Z,27.42
2022-08-01T05:42:52.767Z,27.6
2022-08-01T05:49:23.199Z,27.41
2022-08-01T05:55:49.811Z,27.38
2022-08-01T06:02:13.829Z,27.35
2022-08-01T06:08:40.791Z,27.35
2022-08-01T06:15:10.743Z,27.35
2022-08-01T06:21:33.101Z,27.34
2022-08-01T06:28:01.728Z,27.32
2022-08-01T06:34:21.553Z,27.32
2022-08-01T06:40:51.950Z,27.33
2022-08-01T06:47:36.717Z,27.3
2022-08-01T06:54:09.845Z,27.31
2022-08-01T07:00:38.909Z,27.32
2022-08-01T07:07:08.956Z,27.34
2022-08-01T07:13:36.563Z,27.33
2022-08-01T07:20:11.895Z,27.33
2022-08-01T07:26:52.787Z,27.33
2022-08-01T07:33:20.722Z,27.33
2022-08-01T07:39:48.804Z,27.33
2022-08-01T07:46:17.133Z,27.38
2022-08-01T07:52:43.862Z,27.36
2022-08-01T07:59:09.952Z,27.39
2022-08-01T08:05:51.451Z,27.46
2022-08-01T08:12:31.414Z,27.46
2022-08-01T08:18:59.413Z,27.4
2022-08-01T08:25:21.625Z,27.42
2022-08-01T08:31:57.894Z,27.44
2022-08-01T08:38:31.063Z,27.44
2022-08-01T08:45:03.032Z,27.51
2022-08-01T08:51:41.635Z,27.52
2022-08-01T08:58:15.346Z,27.54
2022-08-01T09:04:47.866Z,27.58
2022-08-01T09:11:16.037Z,27.57
2022-08-01T09:18:04.829Z,27.67
2022-08-01T09:24:52.878Z,27.76
2022-08-01T09:32:05.233Z,27.71
2022-08-01T09:38:55.190Z,27.72
2022-08-01T09:45:55.120Z,27.71
2022-08-01T09:52:49.920Z,27.76
2022-08-01T09:59:57.633Z,27.74
2022-08-01T10:06:49.737Z,27.78
2022-08-01T10:13:36.309Z,27.84
2022-08-01T10:20:05.930Z,27.85
2022-08-01T10:26:56.984Z,27.79
2022-08-01T10:33:52.138Z,27.81
2022-08-01T10:40:35.951Z,27.84
2022-08-01T10:47:10.985Z,27.84
2022-08-01T10:53:54.068Z,27.85
2022-08-01T11:01:01.057Z,27.83
2022-08-01T11:07:56.932Z,27.83
2022-08-01T11:14:55.040Z,27.89
2022-08-01T11:21:58.363Z,27.89
2022-08-01T11:28:40.536Z,27.86
2022-08-01T11:35:41.391Z,27.85
2022-08-01T11:42:27.464Z,27.9
2022-08-01T11:49:08.307Z,27.88
2022-08-01T11:55:51.357Z,27.89
2022-08-01T12:02:30.334Z,27.92
2022-08-01T12:09:13.387Z,27.93
2022-08-01T12:15:51.409Z,27.92
2022-08-01T12:22:43.271Z,27.96
2022-08-01T12:29:23.137Z,27.96
2022-08-01T12:36:19.061Z,27.96
2022-08-01T12:42:59.068Z,27.97
2022-08-01T12:49:28.019Z,27.95
2022-08-01T12:56:08.409Z,27.98
2022-08-01T13:02:49.070Z,28
2022-08-01T13:09:39.845Z,28.1
2022-08-01T13:16:55.322Z,27.93
2022-08-01T13:24:01.202Z,27.8
2022-08-01T13:30:55.002Z,27.76
2022-08-01T13:37:46.355Z,27.8
2022-08-01T13:44:15.151Z,27.77
2022-08-01T13:51:01.960Z,27.74
2022-08-01T13:57:36.499Z,27.76
2022-08-01T14:04:01.472Z,27.73
2022-08-01T14:10:31.085Z,27.76
2022-08-01T14:16:55.943Z,27.74
2022-08-01T14:23:21.275Z,27.75
2022-08-01T14:29:54.761Z,27.77
2022-08-01T14:36:43.693Z,27.81
2022-08-01T14:43:16.116Z,27.82
2022-08-01T14:50:01.384Z,27.82
2022-08-01T14:56:34.072Z,27.84
2022-08-01T15:02:58.312Z,27.84
2022-08-01T15:09:27.739Z,27.87
2022-08-01T15:15:53.066Z,27.91
2022-08-01T15:22:27.127Z,27.95
2022-08-01T15:28:56.098Z,27.92
2022-08-01T15:35:21.472Z,27.97
2022-08-01T15:41:47.057Z,27.93
2022-08-01T15:48:21.487Z,27.99
2022-08-01T15:54:52.035Z,27.92
2022-08-01T16:01:21.154Z,27.89
2022-08-01T16:07:56.879Z,27.92
2022-08-01T16:14:26.096Z,27.96
2022-08-01T16:20:52.691Z,27.96
2022-08-01T16:27:27.139Z,28.05
2022-08-01T16:33:57.188Z,28.05
2022-08-01T16:40:29.115Z,28.03
2022-08-01T16:47:06.543Z,28.05
2022-08-01T16:53:33.578Z,28.14
2022-08-01T16:59:57.029Z,28.05
2022-08-01T17:06:23.129Z,28.08
2022-08-01T17:12:48.466Z,28.01
2022-08-01T17:19:19.273Z,28.04
2022-08-01T17:26:03.037Z,28.12
2022-08-01T17:32:34.159Z,28.11
2022-08-01T17:38:58.008Z,28.21
2022-08-01T17:45:27.820Z,27.87
2022-08-01T17:51:57.136Z,27.77
2022-08-01T17:58:33.321Z,27.72
2022-08-01T18:05:09.545Z,27.58
2022-08-01T18:11:44.584Z,27.49
2022-08-01T18:18:32.949Z,27.53
2022-08-01T18:25:09.241Z,27.7
2022-08-01T18:31:38.158Z,27.82
2022-08-01T18:38:02.199Z,27.92
2022-08-01T18:44:29.388Z,27.97
2022-08-01T18:50:53.642Z,27.98
2022-08-01T18:57:22.300Z,27.95
2022-08-01T19:03:46.207Z,27.96
2022-08-01T19:10:14.139Z,27.96
2022-08-01T19:16:48.212Z,27.97
2022-08-01T19:23:21.174Z,28.01
2022-08-01T19:30:02.217Z,27.98
2022-08-01T19:36:35.260Z,27.98
2022-08-01T19:43:03.828Z,28
2022-08-01T19:49:37.324Z,28.06
2022-08-01T19:56:19.521Z,28.05
2022-08-01T20:02:54.243Z,28.01
2022-08-01T20:09:26.710Z,28.02
2022-08-01T20:16:00.644Z,28
2022-08-01T20:22:34.336Z,28.21
2022-08-01T20:29:13.615Z,28.17
2022-08-01T20:35:54.734Z,28.28
2022-08-01T20:42:45.286Z,28.41
2022-08-01T20:49:18.857Z,28.34
2022-08-01T20:55:41.236Z,28.25
2022-08-01T21:02:50.574Z,28.28
2022-08-01T21:09:39.803Z,28.23
2022-08-01T21:16:45.256Z,28.21
2022-08-01T21:23:38.445Z,28.21
2022-08-01T21:30:26.315Z,28.22
2022-08-01T21:37:02.456Z,28.29
2022-08-01T21:43:40.765Z,28.38
2022-08-01T21:50:13.253Z,28.23
2022-08-01T21:57:05.503Z,28.3
2022-08-01T22:04:08.316Z,28.38
2022-08-01T22:10:54.294Z,28.25
2022-08-01T22:17:26.550Z,28.29
2022-08-01T22:23:52.325Z,28.2
2022-08-01T22:30:33.202Z,28.3
2022-08-01T22:37:13.555Z,28.25
2022-08-01T22:44:11.458Z,28.17
2022-08-01T22:51:24.404Z,28.11
2022-08-01T22:58:31.138Z,28.12
2022-08-01T23:05:19.458Z,28.09
2022-08-01T23:12:03.710Z,28.04
2022-08-01T23:18:48.658Z,28.05
2022-08-01T23:25:27.388Z,28.04
2022-08-01T23:32:08.335Z,28
2022-08-01T23:38:36.675Z,28.05
2022-08-01T23:45:09.337Z,27.98
2022-08-01T23:51:38.352Z,27.97
2022-08-01T23:57:59.893Z,27.92
